createdAt,value
2018-07-05T00:00:00.333Z,25.48
2018-07-05T00:02:47.431Z,25.45
2018-07-05T00:05:34.282Z,25.56
2018-07-05T00:08:21.269Z,25.63
2018-07-05T00:11:07.993Z,25.52
2018-07-05T00:13:54.855Z,25.69
2018-07-05T00:16:41.505Z,25.79
2018-07-05T00:19:28.621Z,25.90
2018-07-05T00:22:15.335Z,26.05
2018-07-05T00:25:02.450Z,26.19
2018-07-05T00:27:49.339Z,26.19
2018-07-05T00:30:36.413Z,26.22
2018-07-05T00:33:23.266Z,26.37
2018-07-05T00:36:10.566Z,26.41
2018-07-05T00:38:57.212Z,26.42
2018-07-05T00:41:44.033Z,26.37
2018-07-05T00:44:31.041Z,26.13
2018-07-05T00:47:18.140Z,26.21
2018-07-05T00:50:05.081Z,26.25
2018-07-05T00:52:45.968Z,26.15
2018-07-05T00:55:26.616Z,26.15
2018-07-05T00:58:13.498Z,26.22
2018-07-05T01:01:00.408Z,26.08
2018-07-05T01:03:47.357Z,26.03
2018-07-05T01:06:34.132Z,26.01
2018-07-05T01:09:20.945Z,25.86
2018-07-05T01:12:07.569Z,25.82
2018-07-05T01:14:54.540Z,25.85
2018-07-05T01:17:41.149Z,25.87
2018-07-05T01:20:28.326Z,25.97
2018-07-05T01:23:08.988Z,25.89
2018-07-05T01:25:56.109Z,25.88
2018-07-05T01:28:37.356Z,25.86
2018-07-05T01:31:24.122Z,25.86
2018-07-05T01:34:10.945Z,25.95
2018-07-05T01:36:58.349Z,25.88
2018-07-05T01:39:39.101Z,25.84
2018-07-05T01:42:26.057Z,25.78
2018-07-05T01:45:12.701Z,25.69
2018-07-05T01:47:59.802Z,25.55
2018-07-05T01:50:46.506Z,25.42
2018-07-05T01:53:33.573Z,25.26
2018-07-05T01:56:20.120Z,25.24
2018-07-05T01:59:07.009Z,25.21
2018-07-05T02:01:53.637Z,25.27
2018-07-05T02:04:40.737Z,25.20
2018-07-05T02:07:27.469Z,25.25
2018-07-05T02:10:14.357Z,25.27
2018-07-05T02:13:01.117Z,25.36
2018-07-05T02:15:48.214Z,25.38
2018-07-05T02:18:35.065Z,25.34
2018-07-05T02:21:15.773Z,25.37
2018-07-05T02:24:02.551Z,25.43
2018-07-05T02:26:49.150Z,25.49
2018-07-05T02:29:35.945Z,25.47
2018-07-05T02:32:23.140Z,25.43
2018-07-05T02:35:09.762Z,25.46
2018-07-05T02:38:01.863Z,25.43
2018-07-05T02:40:48.684Z,25.39
2018-07-05T02:43:35.534Z,25.33
2018-07-05T02:46:22.415Z,25.21
2018-07-05T02:49:09.533Z,25.19
2018-07-05T02:51:56.361Z,25.19
2018-07-05T02:54:43.143Z,25.02
2018-07-05T02:57:30.181Z,25.17
2018-07-05T03:00:17.009Z,25.26
2018-07-05T03:03:03.584Z,25.08
2018-07-05T03:05:50.937Z,25.13
2018-07-05T03:08:37.819Z,25.22
2018-07-05T03:11:24.601Z,25.26
2018-07-05T03:14:11.471Z,25.21
2018-07-05T03:16:59.577Z,25.10
2018-07-05T03:19:46.487Z,25.14
2018-07-05T03:22:33.790Z,25.16
2018-07-05T03:25:20.723Z,25.14
2018-07-05T03:28:07.669Z,25.23
2018-07-05T03:30:54.678Z,25.27
2018-07-05T03:33:42.075Z,25.38
2018-07-05T03:36:28.805Z,25.31
2018-07-05T03:39:15.753Z,25.41
2018-07-05T03:42:02.506Z,25.55
2018-07-05T03:44:49.457Z,25.45
2018-07-05T03:47:36.434Z,25.45
2018-07-05T03:50:23.381Z,25.53
2018-07-05T03:53:10.281Z,25.68
2018-07-05T03:55:57.253Z,25.55
2018-07-05T03:58:43.901Z,25.47
2018-07-05T04:01:30.931Z,25.46
2018-07-05T04:04:17.810Z,25.47
2018-07-05T04:07:05.165Z,25.63
2018-07-05T04:09:52.065Z,25.69
2018-07-05T04:12:38.893Z,25.74
2018-07-05T04:15:19.830Z,25.75
2018-07-05T04:18:06.872Z,25.81
2018-07-05T04:20:53.677Z,25.76
2018-07-05T04:23:40.707Z,25.91
2018-07-05T04:26:27.398Z,25.83
2018-07-05T04:29:14.425Z,25.77
2018-07-05T04:32:01.125Z,26.16
2018-07-05T04:34:48.018Z,26.09
2018-07-05T04:37:35.136Z,25.98
2018-07-05T04:40:22.351Z,25.91
2018-07-05T04:43:09.289Z,26.12
2018-07-05T04:45:55.945Z,26.31
2018-07-05T04:48:42.805Z,26.41
2018-07-05T04:51:29.673Z,26.34
2018-07-05T04:54:16.810Z,26.59
2018-07-05T04:57:04.542Z,27.20
2018-07-05T04:59:51.659Z,27.11
2018-07-05T05:02:38.341Z,27.32
2018-07-05T05:05:25.208Z,27.93
2018-07-05T05:08:12.298Z,28.07
2018-07-05T05:10:59.042Z,28.10
2018-07-05T05:13:39.874Z,27.99
2018-07-05T05:16:26.802Z,27.93
2018-07-05T05:19:07.944Z,28.39
2018-07-05T05:21:54.852Z,28.13
2018-07-05T05:24:41.733Z,28.57
2018-07-05T05:27:28.494Z,28.80
2018-07-05T05:30:15.383Z,28.66
2018-07-05T05:33:02.125Z,28.76
2018-07-05T05:35:49.213Z,29.02
2018-07-05T05:38:36.086Z,29.14
2018-07-05T05:41:23.545Z,29.51
2018-07-05T05:44:10.184Z,29.59
2018-07-05T05:46:58.517Z,30.08
2018-07-05T05:49:45.627Z,30.25
2018-07-05T05:52:32.310Z,30.36
2018-07-05T05:55:19.141Z,30.49
2018-07-05T05:58:06.210Z,30.43
2018-07-05T06:00:53.056Z,31.22
2018-07-05T06:03:40.071Z,31.20
2018-07-05T06:06:21.104Z,30.69
2018-07-05T06:09:08.147Z,30.82
2018-07-05T06:11:48.909Z,30.65
2018-07-05T06:14:29.625Z,30.61
2018-07-05T06:17:16.380Z,31.36
2018-07-05T06:20:04.630Z,31.07
2018-07-05T06:22:45.570Z,31.52
2018-07-05T06:25:32.418Z,32.01
2018-07-05T06:28:20.234Z,31.86
2018-07-05T06:31:07.524Z,31.71
2018-07-05T06:33:54.341Z,32.15
2018-07-05T06:36:41.132Z,32.45
2018-07-05T06:39:28.146Z,31.97
2018-07-05T06:42:15.282Z,32.18
2018-07-05T06:45:02.041Z,32.65
2018-07-05T06:47:43.073Z,32.93
2018-07-05T06:50:29.706Z,32.67
2018-07-05T06:53:16.895Z,32.82
2018-07-05T06:56:03.830Z,33.27
2018-07-05T06:58:50.822Z,34.04
2018-07-05T07:01:37.810Z,33.84
2018-07-05T07:04:24.848Z,33.55
2018-07-05T07:07:11.603Z,33.62
2018-07-05T07:09:59.001Z,34.09
2018-07-05T07:12:45.715Z,34.48
2018-07-05T07:15:33.833Z,34.41
2018-07-05T07:18:20.951Z,34.80
2018-07-05T07:21:08.076Z,34.90
2018-07-05T07:23:55.078Z,34.48
2018-07-05T07:26:42.350Z,34.80
2018-07-05T07:29:23.454Z,34.93
2018-07-05T07:32:11.194Z,35.08
2018-07-05T07:34:58.140Z,34.79
2018-07-05T07:37:39.601Z,34.56
2018-07-05T07:40:26.609Z,34.59
2018-07-05T07:42:55.198Z,34.94
2018-07-05T07:45:23.410Z,35.07
2018-07-05T07:47:51.669Z,34.88
2018-07-05T07:50:20.612Z,35.21
2018-07-05T07:52:49.090Z,35.91
2018-07-05T07:55:17.314Z,35.32
2018-07-05T07:57:46.594Z,35.67
2018-07-05T08:00:14.839Z,35.96
2018-07-05T08:02:43.073Z,36.07
2018-07-05T08:05:11.663Z,36.29
2018-07-05T08:07:39.913Z,36.56
2018-07-05T08:10:08.690Z,36.18
2018-07-05T08:12:37.017Z,35.82
2018-07-05T08:15:05.255Z,36.08
2018-07-05T08:17:33.817Z,36.19
2018-07-05T08:20:02.364Z,36.41
2018-07-05T08:22:30.607Z,36.90
2018-07-05T08:24:58.881Z,36.72
2018-07-05T08:27:27.538Z,36.91
2018-07-05T08:29:55.845Z,36.49
2018-07-05T08:32:24.118Z,36.66
2018-07-05T08:34:52.605Z,37.00
2018-07-05T08:37:20.874Z,36.75
2018-07-05T08:39:49.531Z,36.22
2018-07-05T08:42:17.793Z,36.69
2018-07-05T08:44:46.022Z,37.18
2018-07-05T08:47:14.277Z,37.24
2018-07-05T08:49:42.996Z,36.45
2018-07-05T08:52:11.241Z,35.55
2018-07-05T08:54:40.008Z,36.13
2018-07-05T08:57:08.521Z,36.30
2018-07-05T08:59:37.003Z,37.00
2018-07-05T09:02:05.268Z,36.52
2018-07-05T09:04:33.889Z,36.68
2018-07-05T09:07:02.211Z,36.05
2018-07-05T09:09:30.850Z,36.84
2018-07-05T09:11:59.309Z,37.87
2018-07-05T09:14:27.566Z,37.96
2018-07-05T09:16:56.126Z,37.41
2018-07-05T09:19:24.544Z,37.78
2018-07-05T09:21:52.760Z,38.89
2018-07-05T09:24:21.366Z,38.04
2018-07-05T09:26:49.744Z,37.42
2018-07-05T09:29:18.366Z,37.10
2018-07-05T09:31:46.545Z,37.76
2018-07-05T09:34:14.766Z,38.55
2018-07-05T09:36:43.013Z,39.20
2018-07-05T09:39:11.745Z,39.05
2018-07-05T09:41:40.297Z,38.68
2018-07-05T09:44:08.634Z,38.65
2018-07-05T09:46:36.838Z,38.93
2018-07-05T09:49:05.109Z,38.27
2018-07-05T09:51:33.387Z,38.51
2018-07-05T09:54:01.698Z,38.40
2018-07-05T09:56:30.119Z,38.44
2018-07-05T09:58:58.385Z,38.20
2018-07-05T10:01:26.557Z,39.08
2018-07-05T10:03:55.225Z,40.15
2018-07-05T10:06:24.005Z,39.56
2018-07-05T10:08:52.206Z,40.74
2018-07-05T10:11:21.676Z,40.82
2018-07-05T10:13:50.538Z,40.29
2018-07-05T10:16:18.425Z,39.58
2018-07-05T10:18:46.984Z,38.71
2018-07-05T10:21:15.181Z,37.78
2018-07-05T10:23:43.465Z,38.00
2018-07-05T10:26:12.173Z,36.42
2018-07-05T10:29:00.186Z,37.62
2018-07-05T10:31:41.548Z,38.87
2018-07-05T10:34:09.715Z,38.35
2018-07-05T10:36:37.916Z,38.64
2018-07-05T10:39:06.686Z,39.74
2018-07-05T10:41:53.629Z,40.70
2018-07-05T10:44:40.793Z,40.50
2018-07-05T10:47:27.546Z,40.53
2018-07-05T10:50:15.562Z,40.32
2018-07-05T10:53:02.290Z,40.27
2018-07-05T10:55:43.041Z,39.28
2018-07-05T10:58:29.955Z,40.44
2018-07-05T11:01:17.172Z,40.61
2018-07-05T11:04:04.078Z,41.05
2018-07-05T11:06:51.069Z,41.97
2018-07-05T11:09:37.926Z,41.40
2018-07-05T11:12:18.860Z,41.34
2018-07-05T11:15:05.619Z,41.02
2018-07-05T11:17:53.742Z,40.68
2018-07-05T11:20:34.607Z,39.61
2018-07-05T11:23:22.022Z,39.01
2018-07-05T11:26:08.864Z,40.62
2018-07-05T11:28:56.097Z,40.38
2018-07-05T11:31:42.838Z,40.61
2018-07-05T11:34:29.813Z,40.51
2018-07-05T11:37:16.514Z,39.93
2018-07-05T11:39:57.894Z,40.52
2018-07-05T11:42:44.769Z,40.58
2018-07-05T11:45:31.934Z,41.17
2018-07-05T11:48:18.875Z,41.79
2018-07-05T11:51:05.593Z,41.74
2018-07-05T11:53:52.145Z,41.30
2018-07-05T11:56:33.200Z,40.65
2018-07-05T11:59:20.217Z,40.12
2018-07-05T12:02:07.349Z,40.08
2018-07-05T12:04:53.878Z,40.07
2018-07-05T12:07:40.542Z,40.70
2018-07-05T12:10:27.072Z,41.00
2018-07-05T12:13:13.961Z,41.82
2018-07-05T12:16:00.669Z,41.14
2018-07-05T12:18:47.694Z,40.13
2018-07-05T12:21:34.417Z,40.79
2018-07-05T12:24:21.413Z,40.83
2018-07-05T12:27:08.317Z,40.49
2018-07-05T12:29:49.184Z,41.38
2018-07-05T12:32:36.172Z,41.18
2018-07-05T12:35:23.086Z,41.36
2018-07-05T12:38:09.862Z,41.83
2018-07-05T12:40:56.912Z,41.07
2018-07-05T12:43:43.641Z,41.35
2018-07-05T12:46:24.695Z,41.60
2018-07-05T12:49:11.521Z,41.10
2018-07-05T12:51:58.602Z,41.37
2018-07-05T12:54:45.227Z,40.98
2018-07-05T12:57:32.464Z,41.06
2018-07-05T13:00:13.249Z,41.42
2018-07-05T13:02:54.089Z,41.98
2018-07-05T13:05:41.213Z,42.62
2018-07-05T13:08:22.117Z,42.79
2018-07-05T13:11:02.946Z,42.64
2018-07-05T13:13:50.101Z,41.98
2018-07-05T13:16:37.182Z,41.85
2018-07-05T13:19:23.966Z,41.25
2018-07-05T13:22:11.033Z,41.58
2018-07-05T13:24:52.029Z,40.91
2018-07-05T13:27:38.753Z,40.96
2018-07-05T13:30:25.837Z,42.19
2018-07-05T13:33:12.566Z,41.39
2018-07-05T13:35:59.509Z,41.37
2018-07-05T13:38:46.069Z,41.67
2018-07-05T13:41:33.288Z,41.65
2018-07-05T13:44:20.053Z,41.43
2018-07-05T13:47:06.894Z,41.76
2018-07-05T13:49:53.783Z,42.21
2018-07-05T13:52:34.861Z,42.04
2018-07-05T13:55:21.530Z,41.78
2018-07-05T13:58:08.619Z,42.23
2018-07-05T14:00:55.531Z,41.62
2018-07-05T14:03:42.433Z,41.66
2018-07-05T14:06:29.447Z,41.43
2018-07-05T14:09:16.300Z,41.82
2018-07-05T14:12:03.090Z,40.96
2018-07-05T14:14:44.088Z,41.04
2018-07-05T14:17:30.817Z,41.38
2018-07-05T14:20:11.808Z,39.99
2018-07-05T14:22:58.783Z,40.06
2018-07-05T14:25:39.911Z,39.40
2018-07-05T14:28:26.801Z,38.40
2018-07-05T14:31:13.865Z,38.46
2018-07-05T14:34:00.517Z,39.09
2018-07-05T14:36:41.340Z,39.86
2018-07-05T14:39:28.214Z,40.03
2018-07-05T14:42:15.189Z,39.97
2018-07-05T14:45:02.126Z,39.81
2018-07-05T14:47:48.885Z,39.93
2018-07-05T14:50:35.809Z,39.46
2018-07-05T14:53:22.970Z,39.37
2018-07-05T14:56:09.673Z,39.22
2018-07-05T14:58:57.167Z,38.94
2018-07-05T15:01:43.907Z,39.52
2018-07-05T15:04:30.829Z,39.11
2018-07-05T15:07:17.626Z,39.01
2018-07-05T15:10:04.486Z,39.11
2018-07-05T15:12:51.149Z,38.78
2018-07-05T15:15:38.417Z,38.95
2018-07-05T15:18:25.102Z,38.61
2018-07-05T15:21:11.998Z,38.27
2018-07-05T15:23:58.974Z,38.32
2018-07-05T15:26:45.992Z,38.44
2018-07-05T15:29:32.685Z,38.47
2018-07-05T15:32:19.614Z,38.61
2018-07-05T15:35:06.345Z,38.22
2018-07-05T15:37:47.177Z,38.32
2018-07-05T15:40:33.914Z,38.04
2018-07-05T15:43:20.770Z,38.16
2018-07-05T15:46:07.518Z,38.13
2018-07-05T15:48:54.640Z,37.69
2018-07-05T15:51:41.503Z,37.08
2018-07-05T15:54:28.225Z,37.32
2018-07-05T15:57:14.957Z,37.29
2018-07-05T16:00:02.126Z,37.55
2018-07-05T16:02:48.817Z,37.38
2018-07-05T16:05:35.659Z,37.25
2018-07-05T16:08:22.326Z,37.08
2018-07-05T16:11:03.443Z,37.16
2018-07-05T16:13:50.188Z,37.38
2018-07-05T16:16:36.977Z,37.35
2018-07-05T16:19:23.880Z,37.19
2018-07-05T16:22:10.966Z,36.96
2018-07-05T16:24:58.045Z,36.66
2018-07-05T16:27:44.993Z,36.75
2018-07-05T16:30:31.594Z,36.82
2018-07-05T16:33:12.747Z,36.79
2018-07-05T16:35:59.650Z,36.58
2018-07-05T16:38:47.023Z,36.37
2018-07-05T16:41:33.813Z,36.02
2018-07-05T16:44:14.970Z,36.02
2018-07-05T16:47:01.805Z,35.71
2018-07-05T16:49:48.929Z,35.58
2018-07-05T16:52:35.585Z,35.40
2018-07-05T16:55:22.450Z,35.16
2018-07-05T16:58:09.245Z,34.94
2018-07-05T17:00:55.968Z,34.67
2018-07-05T17:03:42.932Z,34.77
2018-07-05T17:06:30.133Z,34.59
2018-07-05T17:09:16.934Z,34.26
2018-07-05T17:12:03.687Z,34.20
2018-07-05T17:14:44.271Z,34.03
2018-07-05T17:17:31.233Z,33.90
2018-07-05T17:20:17.932Z,33.91
2018-07-05T17:23:04.782Z,33.96
2018-07-05T17:25:45.444Z,33.79
2018-07-05T17:28:32.457Z,33.50
2018-07-05T17:31:19.049Z,33.34
2018-07-05T17:34:06.077Z,33.07
2018-07-05T17:36:52.922Z,32.77
2018-07-05T17:39:40.058Z,32.83
2018-07-05T17:42:26.952Z,32.57
2018-07-05T17:45:14.002Z,32.49
2018-07-05T17:47:54.660Z,32.33
2018-07-05T17:50:41.317Z,32.20
2018-07-05T17:53:28.287Z,32.15
2018-07-05T17:56:15.214Z,32.21
2018-07-05T17:59:01.798Z,31.89
2018-07-05T18:01:49.298Z,31.65
2018-07-05T18:04:36.145Z,31.85
2018-07-05T18:07:16.932Z,31.63
2018-07-05T18:09:57.945Z,31.49
2018-07-05T18:12:45.000Z,31.52
2018-07-05T18:15:31.872Z,31.39
2018-07-05T18:18:19.206Z,31.27
2018-07-05T18:21:05.937Z,31.12
2018-07-05T18:23:52.861Z,31.07
2018-07-05T18:26:39.765Z,30.92
2018-07-05T18:29:26.746Z,30.97
2018-07-05T18:32:13.660Z,30.81
2018-07-05T18:35:00.814Z,30.70
2018-07-05T18:37:47.578Z,30.61
2018-07-05T18:40:34.673Z,30.51
2018-07-05T18:43:21.362Z,30.56
2018-07-05T18:46:02.234Z,30.54
2018-07-05T18:48:49.197Z,30.59
2018-07-05T18:51:36.240Z,30.70
2018-07-05T18:54:22.806Z,30.46
2018-07-05T18:57:09.865Z,30.61
2018-07-05T18:59:56.743Z,30.38
2018-07-05T19:02:43.489Z,30.31
2018-07-05T19:05:30.138Z,30.36
2018-07-05T19:08:17.149Z,30.39
2018-07-05T19:11:03.703Z,30.47
2018-07-05T19:13:50.726Z,30.47
2018-07-05T19:16:37.563Z,30.26
2018-07-05T19:19:24.346Z,30.25
2018-07-05T19:22:11.353Z,30.27
2018-07-05T19:24:58.177Z,30.11
2018-07-05T19:27:45.155Z,29.93
2018-07-05T19:30:32.042Z,29.55
2018-07-05T19:33:18.718Z,29.38
2018-07-05T19:36:05.707Z,29.45
2018-07-05T19:38:52.493Z,29.27
2018-07-05T19:41:39.385Z,29.70
2018-07-05T19:44:26.324Z,29.71
2018-07-05T19:47:13.106Z,29.69
2018-07-05T19:49:59.766Z,29.71
2018-07-05T19:52:47.027Z,29.74
2018-07-05T19:55:33.872Z,29.78
2018-07-05T19:58:20.962Z,29.71
2018-07-05T20:01:07.856Z,29.52
2018-07-05T20:03:54.541Z,29.55
2018-07-05T20:06:35.312Z,29.33
2018-07-05T20:09:22.294Z,29.26
2018-07-05T20:12:06.397Z,29.18
2018-07-05T20:14:53.348Z,29.03
2018-07-05T20:17:40.060Z,28.99
2018-07-05T20:20:26.937Z,28.95
2018-07-05T20:23:13.697Z,28.89
2018-07-05T20:26:01.141Z,28.85
2018-07-05T20:28:42.077Z,28.74
2018-07-05T20:31:29.148Z,28.75
2018-07-05T20:34:16.104Z,28.65
2018-07-05T20:37:03.055Z,28.40
2018-07-05T20:39:49.753Z,28.26
2018-07-05T20:42:36.673Z,28.29
2018-07-05T20:45:23.378Z,28.24
2018-07-05T20:48:10.245Z,27.89
2018-07-05T20:50:56.885Z,28.26
2018-07-05T20:53:43.913Z,28.19
2018-07-05T20:56:30.412Z,28.39
2018-07-05T20:59:17.169Z,28.50
2018-07-05T21:02:03.969Z,28.46
2018-07-05T21:04:51.016Z,28.37
2018-07-05T21:07:37.957Z,28.42
2018-07-05T21:10:25.585Z,28.29
2018-07-05T21:13:12.428Z,28.25
2018-07-05T21:15:59.317Z,28.29
2018-07-05T21:18:46.017Z,28.29
2018-07-05T21:21:32.897Z,28.23
2018-07-05T21:24:19.608Z,28.14
2018-07-05T21:27:06.509Z,28.08
2018-07-05T21:29:53.233Z,27.96
2018-07-05T21:32:40.285Z,28.06
2018-07-05T21:35:20.948Z,27.95
2018-07-05T21:38:08.314Z,27.93
2018-07-05T21:40:54.940Z,27.82
2018-07-05T21:43:41.861Z,27.71
2018-07-05T21:46:28.484Z,27.61
2018-07-05T21:49:15.354Z,27.61
2018-07-05T21:52:02.101Z,27.39
2018-07-05T21:54:48.898Z,27.33
2018-07-05T21:57:35.612Z,27.16
2018-07-05T22:00:22.863Z,26.89
2018-07-05T22:03:03.628Z,26.81
2018-07-05T22:05:50.706Z,26.60
2018-07-05T22:08:37.550Z,26.60
2018-07-05T22:11:24.574Z,26.52
2018-07-05T22:14:05.238Z,26.47
2018-07-05T22:16:51.233Z,26.40
2018-07-05T22:21:50.461Z,26.29
2018-07-05T22:24:42.688Z,26.02
2018-07-05T22:27:34.493Z,25.87
2018-07-05T22:30:26.799Z,25.92
2018-07-05T22:33:13.453Z,25.84
2018-07-05T22:36:00.734Z,25.79
2018-07-05T22:38:47.680Z,25.84
2018-07-05T22:41:36.713Z,25.75
2018-07-05T22:44:23.445Z,25.73
2018-07-05T22:47:10.313Z,25.78
2018-07-05T22:49:57.065Z,25.78
2018-07-05T22:52:43.862Z,25.94
2018-07-05T22:55:30.686Z,25.99
2018-07-05T22:58:17.770Z,25.69
2018-07-05T23:01:04.518Z,25.86
2018-07-05T23:03:51.602Z,25.82
2018-07-05T23:06:38.451Z,25.72
2018-07-05T23:09:25.717Z,25.88
2018-07-05T23:12:12.369Z,25.91
2018-07-05T23:14:59.765Z,24.95
2018-07-05T23:17:46.818Z,24.96
2018-07-05T23:20:27.684Z,25.17
2018-07-05T23:23:14.490Z,25.31
2018-07-05T23:26:01.477Z,25.07
2018-07-05T23:28:48.334Z,24.92
2018-07-05T23:31:35.236Z,24.95
2018-07-05T23:34:22.219Z,24.92
2018-07-05T23:37:09.269Z,24.95
2018-07-05T23:39:56.061Z,24.47
2018-07-05T23:42:42.952Z,24.57
2018-07-05T23:45:29.682Z,24.82
2018-07-05T23:48:17.135Z,24.76
2018-07-05T23:50:57.685Z,24.66
2018-07-05T23:53:44.872Z,24.72
2018-07-05T23:56:31.705Z,24.65
2018-07-05T23:59:18.362Z,24.54
